Strona główna
METAR-TAF:

METAR-TAF

Lotnisko :

Port lotniczy Reykjavík

Reykjavík, Islandia

Szerokość geograficzna: 64-08N, Długość geograficzna: 021-54W, wysokość: 54 m

Aktualna obserwacja pogody

Raport powstał 28 minut temu, godzina 20:00 UTC
Wiatr 19 kt od północ
Temperatura -2°C
Wilgotność 63%
Ciśnienie 984 hPa
Widzialność 10 km lub więcej
Mało chmury na wysokości 4500 ft
Przerywane chmury na wysokości 11000 ft

METAR: BIRK 072000Z 01019KT 9999 FEW045 BKN110 M02/M08 Q0984 R01/920166

czas: 20:28 (20:28 UTC)

Prognoza

Raport powstał 4 godziny i 2 minut temu, godzina 16:26 UTC
Prognoza ważna od 07 godzina 18 UTC do 08 godzina 18 UTC
Wiatr 18 kt od północny wschód
Widzialność 10 km lub więcej
Rozproszone chmury na wysokości 3000 ft
Przejściowo
od 07 godzina 18 UTC do 08 godzina 09 UTC
Wiatr 8 kt od wschód

TAF: BIRK 071626Z 0718/0818 05018KT 9999 SCT030 TX01/0718Z TNM02/0803Z TEMPO 0718/0809 09008KT

Obserwacja i prognoza pogody dla ponad 4000 lotnisk (raport METAR i TAF).

Dostępne stacje oznaczono żółtymi i czerwonymi punktami na mapie.

Najedź kursorem aby zobaczyć nazwę stacji.

Kliknij aby zobaczyć obserwacje i prognozy pogody.

Aby zmienić mapę: kliknij na zielony przycisk z czarnym krzyżykiem, aby powiększyć; na zielony przycisk z myślnikiem, aby pomniejszyć; na zielone strzałki, aby przejść do map sąsiednich.


METAR-TAF: